Time;durP1;ratioP1;P1;durP2;ratioP2;P2;SDS_P1;SDS_P2;PMS_P1;PMS_P2;Temp;Humidity;BMP_temperature;BMP_pressure;BME280_temperature;BME280_humidity;BME280_pressure;Samples;Min_cycle;Max_cycle;Signal;HPM_P1;HPM_P2
2022/02/03 00:00:48;;;;;;;7.03;2.23;;;2.00;99.90;;;;;;4975583;28;20439;-74
2022/02/03 00:05:45;;;;;;;1.63;0.90;;;2.00;99.90;;;;;;4974500;28;20405;-73
2022/02/03 00:22:05;;;;;;;1.70;1.60;;;2.10;99.90;;;;;;4973219;28;20552;-74
2022/02/03 00:25:03;;;;;;;1.20;0.70;;;2.10;99.90;;;;;;4971968;28;20417;-73
2022/02/03 00:30:07;;;;;;;2.00;0.97;;;2.30;99.90;;;;;;4973109;28;20429;-73
2022/02/03 00:51:17;;;;;;;0.83;0.83;;;1.90;99.90;;;;;;4973089;28;20481;-74
2022/02/03 00:53:43;;;;;;;2.20;1.03;;;1.90;99.90;;;;;;4972713;28;20603;-74
2022/02/03 00:56:15;;;;;;;4.97;1.27;;;1.80;99.90;;;;;;4972864;28;20504;-75
2022/02/03 00:59:11;;;;;;;1.30;1.20;;;1.80;99.90;;;;;;4973024;28;20317;-72
2022/02/03 01:01:40;;;;;;;0.70;0.70;;;1.70;99.90;;;;;;4973867;28;20433;-74
2022/02/03 01:04:10;;;;;;;3.53;1.10;;;1.70;99.90;;;;;;4976987;28;20440;-74
2022/02/03 01:06:42;;;;;;;3.23;1.37;;;1.60;99.90;;;;;;4973159;28;20512;-75
2022/02/03 01:09:09;;;;;;;1.00;1.00;;;1.70;99.90;;;;;;4972855;28;20417;-74
2022/02/03 01:11:41;;;;;;;1.90;1.20;;;1.70;99.90;;;;;;4973020;28;20562;-74
2022/02/03 01:14:11;;;;;;;0.80;0.80;;;1.70;99.90;;;;;;4972714;28;20986;-74
2022/02/03 01:16:59;;;;;;;3.27;1.27;;;1.70;99.90;;;;;;4972823;28;20401;-76
2022/02/03 01:19:50;;;;;;;1.03;0.90;;;1.70;99.90;;;;;;4972556;28;20427;-74
2022/02/03 01:43:55;;;;;;;1.33;0.80;;;2.00;99.90;;;;;;4976230;28;20499;-73
2022/02/03 01:46:41;;;;;;;1.07;0.97;;;2.10;99.90;;;;;;4976224;28;20411;-74
2022/02/03 01:49:15;;;;;;;3.33;1.30;;;2.10;99.90;;;;;;4975906;28;20420;-74
2022/02/03 01:51:55;;;;;;;3.13;1.77;;;2.20;99.90;;;;;;4975960;28;20849;-75
2022/02/03 01:54:29;;;;;;;1.93;1.00;;;2.20;99.90;;;;;;4975557;28;20456;-74
2022/02/03 01:57:17;;;;;;;0.70;0.70;;;2.30;99.90;;;;;;4975809;28;20778;-74
2022/02/03 01:59:51;;;;;;;0.77;0.77;;;2.30;99.90;;;;;;4975390;28;20432;-73
2022/02/03 02:02:28;;;;;;;1.20;1.13;;;2.30;99.90;;;;;;4975335;28;20407;-76
2022/02/03 02:05:01;;;;;;;1.13;1.00;;;2.40;99.90;;;;;;4975438;28;20409;-74
2022/02/03 02:07:49;;;;;;;2.40;1.43;;;2.40;99.90;;;;;;4975596;28;20456;-74
2022/02/03 02:19:47;;;;;;;0.80;0.80;;;2.60;99.90;;;;;;4974447;28;20448;-73
2022/02/03 02:39:38;;;;;;;6.10;2.00;;;2.70;99.90;;;;;;4976096;28;20907;-74
2022/02/03 02:44:57;;;;;;;10.83;1.60;;;2.80;99.90;;;;;;4978448;28;20408;-74
2022/02/03 02:47:29;;;;;;;3.40;1.77;;;2.80;99.90;;;;;;4979457;28;20848;-75
2022/02/03 02:50:20;;;;;;;3.23;0.90;;;2.80;99.90;;;;;;4979400;28;20499;-74
2022/02/03 02:52:56;;;;;;;1.30;1.20;;;2.80;99.90;;;;;;4979755;28;20464;-74
2022/02/03 02:55:57;;;;;;;3.50;1.30;;;2.80;99.90;;;;;;4976891;28;20484;-74
2022/02/03 02:58:47;;;;;;;4.33;1.47;;;2.90;99.90;;;;;;4974798;28;20444;-74
2022/02/03 03:28:52;;;;;;;2.50;1.53;;;2.90;99.90;;;;;;4974727;28;20405;-73
2022/02/03 03:29:46;;;;;;;19.83;1.67;;;3.00;99.90;;;;;;4973878;28;20472;-74
2022/02/03 03:32:36;;;;;;;4.50;1.03;;;3.00;99.90;;;;;;4974184;28;20409;-74
2022/02/03 03:35:33;;;;;;;2.80;1.57;;;3.10;99.90;;;;;;4974122;28;20404;-73
2022/02/03 03:38:00;;;;;;;2.50;2.30;;;3.10;99.90;;;;;;4974271;28;20397;-75
2022/02/03 03:40:29;;;;;;;2.00;1.90;;;3.10;99.90;;;;;;4973604;28;20455;-74
2022/02/03 03:43:03;;;;;;;1.93;1.53;;;3.10;99.90;;;;;;4972362;28;20416;-74
2022/02/03 03:45:30;;;;;;;4.80;1.20;;;3.10;99.90;;;;;;4973331;28;20412;-74
2022/02/03 03:48:05;;;;;;;3.33;1.13;;;3.20;99.90;;;;;;4973801;28;20401;-74
2022/02/03 03:50:38;;;;;;;4.50;0.90;;;3.20;99.90;;;;;;4972346;28;20467;-74
2022/02/03 03:53:16;;;;;;;2.40;1.20;;;3.20;99.90;;;;;;4973947;28;20449;-75
2022/02/03 04:45:39;;;;;;;1.53;1.00;;;3.40;99.90;;;;;;4973274;28;20763;-73
2022/02/03 04:58:09;;;;;;;0.90;0.90;;;3.10;99.90;;;;;;4976615;28;20404;-75
2022/02/03 05:01:11;;;;;;;2.60;1.00;;;3.10;99.90;;;;;;4976704;28;20935;-73
2022/02/03 05:06:38;;;;;;;2.00;1.80;;;3.00;99.90;;;;;;5021775;23;20486;-73
2022/02/03 05:13:03;;;;;;;3.50;1.40;;;3.00;99.90;;;;;;5015662;28;20433;-73
2022/02/03 05:15:52;;;;;;;1.93;1.83;;;2.90;99.90;;;;;;5015404;28;20888;-73
2022/02/03 05:18:42;;;;;;;0.77;0.77;;;2.90;99.90;;;;;;5015779;28;20391;-73
2022/02/03 05:22:11;;;;;;;3.23;1.20;;;3.00;99.90;;;;;;5015288;28;20387;-73
2022/02/03 05:25:20;;;;;;;5.43;1.57;;;3.00;99.90;;;;;;5015070;28;20419;-73
2022/02/03 05:46:29;;;;;;;1.47;1.37;;;2.90;99.90;;;;;;4973214;28;20441;-73
2022/02/03 05:49:04;;;;;;;3.03;1.10;;;2.90;99.90;;;;;;4972984;28;20447;-73
2022/02/03 06:05:30;;;;;;;1.07;1.07;;;3.00;99.90;;;;;;5014590;28;20843;-73
2022/02/03 06:15:41;;;;;;;2.33;2.13;;;3.00;99.90;;;;;;5014619;28;20462;-73
2022/02/03 06:20:42;;;;;;;3.50;1.03;;;3.00;99.90;;;;;;5013947;28;20411;-73
2022/02/03 06:21:24;;;;;;;6.43;1.53;;;3.00;99.90;;;;;;5013982;28;20392;-73
2022/02/03 06:23:53;;;;;;;3.63;1.53;;;3.00;99.90;;;;;;5014021;28;20502;-73
2022/02/03 06:29:07;;;;;;;0.93;0.90;;;3.20;99.90;;;;;;5014453;28;20747;-73
2022/02/03 06:31:44;;;;;;;1.90;1.50;;;3.20;99.90;;;;;;5013996;28;20400;-73
2022/02/03 06:34:10;;;;;;;3.50;1.00;;;3.20;99.90;;;;;;5014107;28;20486;-73
2022/02/03 06:36:37;;;;;;;2.30;1.03;;;3.20;99.90;;;;;;5014361;28;20406;-73
2022/02/03 06:39:13;;;;;;;1.17;1.10;;;3.20;99.90;;;;;;5014021;28;20399;-73
2022/02/03 06:41:39;;;;;;;0.70;0.70;;;3.20;99.90;;;;;;5014048;28;20392;-73
2022/02/03 06:44:05;;;;;;;1.20;1.03;;;3.20;99.90;;;;;;5013920;28;20823;-73
2022/02/03 06:46:32;;;;;;;1.00;1.00;;;3.10;99.90;;;;;;5013739;28;20188;-73
2022/02/03 06:49:09;;;;;;;2.27;1.63;;;3.20;99.90;;;;;;5014197;28;20203;-73
2022/02/03 06:51:39;;;;;;;10.87;1.43;;;3.20;99.90;;;;;;5013677;28;20469;-75
2022/02/03 06:54:14;;;;;;;1.63;1.30;;;3.10;99.90;;;;;;5013563;28;20462;-73
2022/02/03 06:56:48;;;;;;;3.30;1.40;;;3.20;99.90;;;;;;5013554;28;20460;-73
2022/02/03 06:59:17;;;;;;;0.80;0.80;;;3.10;99.90;;;;;;5013523;28;20403;-73
2022/02/03 07:01:44;;;;;;;1.30;1.20;;;3.20;99.90;;;;;;5012716;28;20427;-72
2022/02/03 07:04:24;;;;;;;5.43;1.33;;;3.20;99.90;;;;;;5013453;28;20486;-73
2022/02/03 07:06:50;;;;;;;3.90;1.07;;;3.20;99.90;;;;;;5013487;28;20414;-74
2022/02/03 07:09:15;;;;;;;3.67;1.40;;;3.20;99.90;;;;;;5013129;28;20408;-73
2022/02/03 07:11:41;;;;;;;9.43;2.33;;;3.20;99.90;;;;;;5013298;28;20199;-76
2022/02/03 07:14:10;;;;;;;2.27;2.17;;;3.30;99.90;;;;;;5013392;28;20220;-73
2022/02/03 07:16:45;;;;;;;0.83;0.80;;;3.20;99.90;;;;;;5013262;28;20412;-74
2022/02/03 07:19:11;;;;;;;4.77;1.17;;;3.30;99.90;;;;;;5012197;28;20434;-74
2022/02/03 07:21:36;;;;;;;2.10;1.77;;;3.40;99.90;;;;;;5013233;28;20800;-73
2022/02/03 07:24:02;;;;;;;1.83;1.27;;;3.40;99.90;;;;;;5011818;28;20172;-74
2022/02/03 07:26:27;;;;;;;1.90;1.60;;;3.40;99.90;;;;;;5013128;28;20188;-73
2022/02/03 07:28:53;;;;;;;6.60;3.03;;;3.50;99.90;;;;;;5013139;28;20176;-73
2022/02/03 07:31:18;;;;;;;1.17;1.10;;;3.60;99.90;;;;;;5013121;28;20184;-74
2022/02/03 07:33:44;;;;;;;4.23;1.33;;;3.60;99.90;;;;;;5013207;28;20219;-73
2022/02/03 07:36:10;;;;;;;2.87;2.03;;;3.60;99.90;;;;;;5012855;28;20728;-73
2022/02/03 07:38:38;;;;;;;3.77;2.30;;;3.60;99.90;;;;;;5012899;28;20251;-74
2022/02/03 07:41:04;;;;;;;15.23;3.37;;;3.60;99.90;;;;;;5012746;28;20403;-73
2022/02/03 07:43:29;;;;;;;2.43;1.93;;;3.60;99.90;;;;;;5012738;28;20547;-73
2022/02/03 07:45:57;;;;;;;2.50;2.30;;;3.70;99.90;;;;;;5012617;28;20203;-74
2022/02/03 07:48:22;;;;;;;2.50;2.13;;;3.70;99.90;;;;;;5012848;28;20187;-73
2022/02/03 07:50:48;;;;;;;8.90;1.70;;;3.70;99.90;;;;;;5012987;28;20491;-71
2022/02/03 07:53:13;;;;;;;2.83;2.50;;;3.80;99.90;;;;;;5012651;28;20192;-73
2022/02/03 07:55:39;;;;;;;8.40;1.97;;;3.80;99.90;;;;;;5012661;28;20188;-73
2022/02/03 07:58:04;;;;;;;7.10;1.73;;;3.80;99.90;;;;;;5012485;28;20160;-73
2022/02/03 08:00:30;;;;;;;7.43;1.70;;;3.90;99.90;;;;;;5006958;28;20176;-71
2022/02/03 08:02:56;;;;;;;4.83;1.47;;;4.00;99.90;;;;;;5012760;28;20157;-72
2022/02/03 08:05:22;;;;;;;3.13;1.80;;;3.90;99.90;;;;;;5012456;28;20210;-72
2022/02/03 08:07:54;;;;;;;9.40;3.90;;;3.90;99.90;;;;;;5012028;28;20302;-73
2022/02/03 08:12:55;;;;;;;3.47;2.50;;;4.00;99.90;;;;;;5012554;28;20516;-73
2022/02/03 08:15:24;;;;;;;5.50;2.37;;;4.10;99.90;;;;;;5012540;28;20453;-73
2022/02/03 08:17:51;;;;;;;3.37;1.97;;;4.00;99.90;;;;;;5012384;28;20408;-73
2022/02/03 08:20:18;;;;;;;2.90;2.70;;;4.10;99.90;;;;;;5012372;28;20415;-73
2022/02/03 08:22:51;;;;;;;3.40;3.10;;;4.20;99.90;;;;;;5012362;28;20457;-73
2022/02/03 08:25:21;;;;;;;1.50;1.40;;;4.40;99.90;;;;;;5012219;28;20980;-73
2022/02/03 08:28:04;;;;;;;3.00;2.10;;;4.60;99.90;;;;;;5012557;28;20399;-73
2022/02/03 08:33:00;;;;;;;6.40;2.40;;;4.60;99.90;;;;;;5012463;28;20450;-73
2022/02/03 08:35:38;;;;;;;2.53;2.27;;;4.70;99.90;;;;;;5012200;28;20423;-73
2022/02/03 08:43:18;;;;;;;2.70;2.43;;;4.90;99.90;;;;;;5012082;28;21005;-72
2022/02/03 08:45:44;;;;;;;6.50;2.57;;;5.00;99.90;;;;;;5011930;28;20430;-72
2022/02/03 08:48:11;;;;;;;11.43;2.37;;;5.10;99.90;;;;;;5011881;28;20404;-72
2022/02/03 08:50:37;;;;;;;8.97;3.93;;;5.00;99.90;;;;;;5011868;28;20404;-72
2022/02/03 08:53:13;;;;;;;5.50;2.87;;;5.00;99.90;;;;;;5011876;28;20497;-72
2022/02/03 08:58:42;;;;;;;3.67;1.83;;;5.30;99.90;;;;;;5012183;28;20414;-73
2022/02/03 09:37:08;;;;;;;4.17;2.53;;;5.80;99.90;;;;;;5011625;28;20457;-73
2022/02/03 09:40:06;;;;;;;2.40;2.00;;;5.90;99.90;;;;;;5011895;28;20415;-73
2022/02/03 09:56:25;;;;;;;3.93;1.40;;;6.30;99.90;;;;;;5014504;28;20195;-72
2022/02/03 09:59:04;;;;;;;2.60;1.57;;;6.30;99.90;;;;;;5014168;28;20534;-73
2022/02/03 10:01:35;;;;;;;2.50;1.67;;;6.20;99.90;;;;;;5014480;28;20419;-73
2022/02/03 10:04:10;;;;;;;1.53;1.43;;;6.20;99.90;;;;;;5012755;28;20419;-73
2022/02/03 10:06:42;;;;;;;4.70;1.70;;;6.20;99.90;;;;;;5014103;28;20469;-73
2022/02/03 10:09:07;;;;;;;1.67;1.57;;;6.20;99.90;;;;;;5014104;28;20415;-74
2022/02/03 10:11:33;;;;;;;3.87;1.60;;;6.00;99.90;;;;;;5013914;28;20411;-73
2022/02/03 10:14:02;;;;;;;1.80;1.67;;;6.30;99.90;;;;;;5013902;28;20211;-74
2022/02/03 10:16:36;;;;;;;4.83;3.47;;;6.30;99.90;;;;;;5013873;28;20547;-74
2022/02/03 10:19:11;;;;;;;3.20;2.90;;;6.40;99.90;;;;;;5013737;28;20518;-73
2022/02/03 10:21:37;;;;;;;4.10;2.13;;;6.40;99.90;;;;;;5013780;28;20438;-74
2022/02/03 10:24:06;;;;;;;3.67;1.83;;;6.30;99.90;;;;;;5013622;28;20412;-74
2022/02/03 10:26:41;;;;;;;2.57;2.37;;;6.40;99.90;;;;;;5014013;28;20427;-73
2022/02/03 10:29:12;;;;;;;3.83;2.20;;;6.40;99.90;;;;;;5013825;28;20398;-74
2022/02/03 10:31:43;;;;;;;3.87;2.10;;;6.60;99.90;;;;;;5012335;28;20554;-74
2022/02/03 10:34:13;;;;;;;6.53;2.20;;;6.40;99.90;;;;;;5013386;28;20450;-74
2022/02/03 10:36:47;;;;;;;4.10;2.87;;;6.30;99.90;;;;;;5013645;28;20408;-74
2022/02/03 10:42:34;;;;;;;5.00;2.13;;;6.40;99.90;;;;;;5013727;28;20820;-74
2022/02/03 10:55:53;;;;;;;3.43;2.47;;;6.30;99.90;;;;;;5012764;28;20431;-74
2022/02/03 11:01:16;;;;;;;5.87;3.40;;;6.30;99.90;;;;;;5013082;28;20443;-74
2022/02/03 11:09:20;;;;;;;3.67;3.27;;;6.20;99.90;;;;;;5014370;28;20503;-72
2022/02/03 11:11:54;;;;;;;3.27;2.70;;;6.20;99.90;;;;;;5027924;28;20903;-73
2022/02/03 11:14:21;;;;;;;3.80;2.30;;;6.20;99.90;;;;;;5013748;28;20454;-73
2022/02/03 11:16:47;;;;;;;4.30;3.00;;;6.20;99.90;;;;;;5013689;28;20514;-72
2022/02/03 11:19:15;;;;;;;5.07;2.63;;;6.20;99.90;;;;;;5013323;28;20813;-72
2022/02/03 11:21:46;;;;;;;2.90;2.30;;;6.30;99.90;;;;;;5013364;28;20183;-72
2022/02/03 11:24:20;;;;;;;3.53;2.20;;;6.30;99.90;;;;;;5013228;28;20461;-72
2022/02/03 11:27:09;;;;;;;3.43;2.87;;;6.20;99.90;;;;;;5013155;28;20517;-73
2022/02/03 11:30:15;;;;;;;3.93;3.10;;;6.30;99.90;;;;;;5013079;28;20433;-73
2022/02/03 11:33:02;;;;;;;3.27;2.43;;;6.20;99.90;;;;;;5012909;28;20447;-73
2022/02/03 11:38:38;;;;;;;3.47;3.07;;;6.20;99.90;;;;;;5014479;28;20406;-73
2022/02/03 11:44:33;;;;;;;4.73;2.87;;;6.30;99.90;;;;;;5013373;28;20414;-73
2022/02/03 11:47:37;;;;;;;5.60;3.10;;;6.20;99.90;;;;;;5013187;28;20447;-73
2022/02/03 11:50:37;;;;;;;5.83;2.97;;;6.20;99.90;;;;;;5011971;28;20814;-73
2022/02/03 11:56:27;;;;;;;3.50;3.10;;;6.20;99.90;;;;;;5013047;28;20684;-72
2022/02/03 12:01:51;;;;;;;3.87;3.23;;;6.20;99.90;;;;;;5011033;28;20443;-73
2022/02/03 12:05:10;;;;;;;3.40;2.90;;;6.20;99.90;;;;;;5012280;28;20514;-72
2022/02/03 12:11:02;;;;;;;3.50;3.10;;;6.20;99.90;;;;;;5012333;28;21106;-74
2022/02/03 12:19:24;;;;;;;3.87;3.50;;;6.20;99.90;;;;;;5015654;28;20450;-73
2022/02/03 12:25:04;;;;;;;3.73;2.60;;;6.20;99.90;;;;;;5013462;28;20406;-74
2022/02/03 12:27:50;;;;;;;3.73;3.17;;;6.10;99.90;;;;;;5012196;28;20399;-74
2022/02/03 12:30:26;;;;;;;3.43;2.30;;;6.20;99.90;;;;;;5018037;28;20446;-74
2022/02/03 12:38:31;;;;;;;3.17;2.23;;;6.20;99.90;;;;;;4994622;28;20933;-73
2022/02/03 12:41:12;;;;;;;2.47;2.27;;;6.30;99.90;;;;;;5005139;28;20498;-74
2022/02/03 12:43:41;;;;;;;3.83;3.43;;;6.30;99.90;;;;;;5010687;28;20418;-73
2022/02/03 12:46:07;;;;;;;6.30;3.70;;;6.30;99.90;;;;;;5012078;28;20423;-73
2022/02/03 12:48:35;;;;;;;5.27;4.77;;;6.20;99.90;;;;;;5011759;28;20438;-74
2022/02/03 12:51:02;;;;;;;2.37;2.17;;;6.20;99.90;;;;;;5012041;28;20469;-73
2022/02/03 12:53:36;;;;;;;4.10;3.53;;;6.20;99.90;;;;;;5011779;28;20474;-73
2022/02/03 12:56:06;;;;;;;5.50;3.37;;;6.30;99.90;;;;;;5012437;28;20485;-74
2022/02/03 12:58:39;;;;;;;7.20;3.80;;;6.40;99.90;;;;;;5012120;28;20415;-72
2022/02/03 13:01:11;;;;;;;4.37;2.97;;;6.30;99.90;;;;;;5012011;28;20921;-74
2022/02/03 13:03:40;;;;;;;6.60;3.00;;;6.40;99.90;;;;;;5011545;28;20489;-74
2022/02/03 13:06:11;;;;;;;4.10;3.70;;;6.40;99.90;;;;;;5011757;28;20470;-73
2022/02/03 13:08:46;;;;;;;5.10;3.10;;;6.40;99.90;;;;;;5011701;28;20404;-73
2022/02/03 13:11:19;;;;;;;4.83;4.43;;;6.40;99.90;;;;;;5011634;28;20418;-74
2022/02/03 13:13:58;;;;;;;3.13;2.73;;;6.40;99.90;;;;;;5011469;28;20458;-73
2022/02/03 13:16:23;;;;;;;4.13;3.77;;;6.40;99.90;;;;;;5009557;28;20960;-73
2022/02/03 13:19:07;;;;;;;3.90;3.27;;;6.40;99.90;;;;;;5012517;28;20443;-73
2022/02/03 13:24:37;;;;;;;4.77;3.40;;;6.40;99.90;;;;;;5015842;28;20414;-74
2022/02/03 13:27:13;;;;;;;4.63;3.00;;;6.50;99.90;;;;;;5016914;28;20423;-73
2022/02/03 13:29:55;;;;;;;5.83;4.47;;;6.50;99.90;;;;;;5016288;28;20788;-72
2022/02/03 13:32:27;;;;;;;4.73;2.93;;;6.50;99.90;;;;;;5015389;28;21032;-73
2022/02/03 13:35:03;;;;;;;7.13;4.10;;;6.50;99.90;;;;;;5015400;28;20451;-73
2022/02/03 13:37:36;;;;;;;5.73;3.23;;;6.50;99.90;;;;;;5015384;28;20482;-77
2022/02/03 13:40:17;;;;;;;6.27;4.67;;;6.40;99.90;;;;;;5015031;28;20419;-72
2022/02/03 13:42:47;;;;;;;10.80;5.20;;;6.50;99.90;;;;;;5015245;28;20670;-72
2022/02/03 13:45:14;;;;;;;5.80;4.80;;;6.60;99.90;;;;;;5015062;28;20840;-72
2022/02/03 13:47:40;;;;;;;6.03;3.73;;;6.60;99.90;;;;;;5015042;28;20494;-72
2022/02/03 13:50:17;;;;;;;4.63;4.20;;;6.60;99.90;;;;;;5015040;28;20913;-72
2022/02/03 13:53:01;;;;;;;4.00;3.57;;;6.60;99.90;;;;;;5015066;28;20423;-72
2022/02/03 14:20:38;;;;;;;4.13;3.53;;;6.80;99.90;;;;;;5014948;28;20506;-73
2022/02/03 14:28:31;;;;;;;6.10;3.50;;;6.70;99.90;;;;;;5014423;28;20443;-74
2022/02/03 14:31:00;;;;;;;3.40;3.10;;;6.80;99.90;;;;;;5014556;28;20445;-73
2022/02/03 14:33:32;;;;;;;3.47;2.90;;;6.90;99.90;;;;;;5014422;28;20486;-73
2022/02/03 14:36:07;;;;;;;6.13;3.80;;;6.90;99.90;;;;;;5014187;28;20514;-72
2022/02/03 14:38:44;;;;;;;5.67;3.47;;;6.80;99.90;;;;;;5014507;28;20497;-73
2022/02/03 14:43:44;;;;;;;3.63;2.80;;;6.90;99.90;;;;;;5014143;28;20426;-72
2022/02/03 14:46:14;;;;;;;3.63;3.00;;;6.90;99.90;;;;;;5014329;28;20858;-74
2022/02/03 14:48:42;;;;;;;2.67;2.27;;;6.90;99.90;;;;;;5014111;28;20192;-73
2022/02/03 14:51:11;;;;;;;4.47;3.40;;;6.90;99.90;;;;;;5014139;28;20403;-72
2022/02/03 14:53:51;;;;;;;2.83;2.63;;;7.00;99.90;;;;;;5013966;28;20949;-72
2022/02/03 14:59:01;;;;;;;3.70;3.13;;;7.00;99.90;;;;;;5013725;28;20418;-74
2022/02/03 15:01:27;;;;;;;3.37;2.97;;;7.00;99.90;;;;;;5013812;28;20411;-72
2022/02/03 15:03:56;;;;;;;3.67;3.00;;;7.00;99.90;;;;;;5013747;28;20173;-73
2022/02/03 15:06:25;;;;;;;4.90;2.70;;;7.00;99.90;;;;;;5013654;28;20807;-74
2022/02/03 15:09:11;;;;;;;4.80;3.43;;;7.00;99.90;;;;;;5013440;28;20454;-72
2022/02/03 15:14:14;;;;;;;3.63;3.30;;;6.90;99.90;;;;;;5013532;28;20459;-73
2022/02/03 15:16:40;;;;;;;4.10;2.10;;;7.00;99.90;;;;;;5015244;28;20438;-72
2022/02/03 15:19:06;;;;;;;2.80;2.50;;;7.00;99.90;;;;;;5013525;28;20160;-73
2022/02/03 15:21:32;;;;;;;3.60;3.00;;;7.00;99.90;;;;;;5007861;28;20646;-73
2022/02/03 15:23:58;;;;;;;3.10;2.80;;;6.90;99.90;;;;;;5013054;28;20403;-72
2022/02/03 15:26:24;;;;;;;5.17;3.20;;;6.90;99.90;;;;;;5013581;28;20987;-72
2022/02/03 15:28:49;;;;;;;3.10;2.60;;;7.00;99.90;;;;;;5013370;28;20194;-71
2022/02/03 15:31:15;;;;;;;3.23;2.93;;;7.00;99.90;;;;;;4996035;28;20411;-72
2022/02/03 15:33:46;;;;;;;5.37;3.40;;;7.00;99.90;;;;;;5013050;28;20267;-73
2022/02/03 15:36:13;;;;;;;2.80;2.40;;;7.00;99.90;;;;;;5013247;28;20188;-72
2022/02/03 15:38:46;;;;;;;3.67;3.00;;;7.00;99.90;;;;;;5013390;28;20441;-73
2022/02/03 15:41:20;;;;;;;3.30;2.97;;;7.00;99.90;;;;;;5009874;28;20411;-72
2022/02/03 15:43:47;;;;;;;4.00;3.27;;;7.00;99.90;;;;;;5013728;28;20398;-72
2022/02/03 15:46:16;;;;;;;3.27;3.00;;;7.00;99.90;;;;;;5013394;28;20485;-72
2022/02/03 15:48:53;;;;;;;5.10;4.00;;;7.00;99.90;;;;;;5026803;28;20412;-72
2022/02/03 16:02:37;;;;;;;9.03;3.30;;;7.00;99.90;;;;;;5016896;28;20997;-72
2022/02/03 16:18:36;;;;;;;6.90;3.93;;;7.10;99.90;;;;;;5032459;28;20770;-74
2022/02/03 16:21:14;;;;;;;5.90;3.93;;;7.10;99.90;;;;;;5021256;28;20411;-73
2022/02/03 16:24:03;;;;;;;5.60;4.33;;;7.00;99.90;;;;;;5011919;28;20967;-73
2022/02/03 16:40:51;;;;;;;3.70;2.63;;;7.10;99.90;;;;;;5012074;28;20410;-72
2022/02/03 16:43:35;;;;;;;4.40;3.60;;;7.10;99.90;;;;;;5012021;28;20489;-75
2022/02/03 16:51:41;;;;;;;4.23;2.40;;;7.20;99.90;;;;;;5012271;28;20434;-73
2022/02/03 16:54:12;;;;;;;6.43;3.30;;;7.20;99.90;;;;;;5016105;28;20442;-72
2022/02/03 16:56:37;;;;;;;6.60;3.63;;;7.20;99.90;;;;;;5015705;28;20789;-72
2022/02/03 16:59:04;;;;;;;5.50;3.50;;;7.20;99.90;;;;;;5016141;28;20428;-73
2022/02/03 17:01:29;;;;;;;6.70;4.30;;;7.20;99.90;;;;;;5015922;28;20407;-73
2022/02/03 17:03:55;;;;;;;6.13;4.20;;;7.20;99.90;;;;;;5016645;28;20415;-73
2022/02/03 17:06:21;;;;;;;6.93;3.70;;;7.20;99.90;;;;;;5015602;28;20575;-72
2022/02/03 17:08:47;;;;;;;4.37;4.00;;;7.20;99.90;;;;;;5015658;28;20325;-71
2022/02/03 17:11:12;;;;;;;6.60;3.80;;;7.20;99.90;;;;;;5015524;28;20418;-71
2022/02/03 17:13:38;;;;;;;7.23;4.20;;;7.20;99.90;;;;;;5020698;28;20195;-71
2022/02/03 17:16:05;;;;;;;6.40;5.07;;;7.20;99.90;;;;;;5035233;28;20192;-70
2022/02/03 17:18:31;;;;;;;6.53;3.90;;;7.20;99.90;;;;;;5035209;28;20503;-72
2022/02/03 17:20:56;;;;;;;9.20;5.07;;;7.20;99.90;;;;;;5025108;28;20466;-71
2022/02/03 17:23:24;;;;;;;7.30;5.57;;;7.30;99.90;;;;;;5014193;28;20176;-72
2022/02/03 17:26:05;;;;;;;6.50;4.37;;;7.30;99.90;;;;;;5014981;28;20192;-73
2022/02/03 17:28:45;;;;;;;6.30;3.87;;;7.20;99.90;;;;;;5015335;28;20894;-72
2022/02/03 18:04:03;;;;;;;6.87;4.37;;;7.30;99.90;;;;;;5013751;28;20230;-73
2022/02/03 18:09:15;;;;;;;8.00;4.30;;;7.20;99.90;;;;;;4996380;28;20607;-73
2022/02/03 18:11:54;;;;;;;4.00;3.37;;;7.30;99.90;;;;;;5014671;28;20438;-74
2022/02/03 18:35:52;;;;;;;8.17;5.53;;;7.20;99.90;;;;;;4994500;28;20475;-75
2022/02/03 18:51:35;;;;;;;5.30;3.80;;;7.20;99.90;;;;;;4996828;28;20412;-74
2022/02/03 18:54:23;;;;;;;11.40;4.97;;;7.20;99.90;;;;;;4998184;28;20727;-72
2022/02/03 19:00:05;;;;;;;6.77;3.90;;;7.20;99.90;;;;;;5007678;28;20800;-74
2022/02/03 19:03:10;;;;;;;4.73;4.23;;;7.20;99.90;;;;;;5013743;28;20774;-73
2022/02/03 19:09:53;;;;;;;4.03;2.87;;;7.20;99.90;;;;;;5034929;28;20433;-73
2022/02/03 19:12:07;;;;;;;7.57;4.80;;;7.20;99.90;;;;;;5010206;28;20419;-74
2022/02/03 19:14:30;;;;;;;7.17;4.30;;;7.20;99.90;;;;;;5020991;28;20458;-74
2022/02/03 19:24:49;;;;;;;6.87;4.90;;;7.20;99.90;;;;;;5021400;28;20442;-75
2022/02/03 20:03:20;;;;;;;9.17;6.20;;;7.20;99.90;;;;;;5012965;28;20407;-77
2022/02/03 20:08:21;;;;;;;6.73;5.30;;;7.20;99.90;;;;;;5013026;28;20453;-76
2022/02/03 20:10:49;;;;;;;9.33;5.47;;;7.20;99.90;;;;;;5013233;28;20411;-77
2022/02/03 20:13:16;;;;;;;7.67;5.60;;;7.20;99.90;;;;;;5013051;28;20439;-77
2022/02/03 20:15:43;;;;;;;6.90;4.13;;;7.30;99.90;;;;;;5012877;28;20427;-76
2022/02/03 20:18:13;;;;;;;10.83;5.80;;;7.20;99.90;;;;;;5013426;28;20419;-75
2022/02/03 20:20:39;;;;;;;5.40;4.17;;;7.20;99.90;;;;;;5012849;28;20430;-76
2022/02/03 20:23:09;;;;;;;5.40;3.80;;;7.30;99.90;;;;;;5012805;28;20403;-77
2022/02/03 20:25:36;;;;;;;5.27;3.83;;;7.30;99.90;;;;;;5012915;28;20921;-76
2022/02/03 20:28:06;;;;;;;7.33;4.60;;;7.20;99.90;;;;;;5012115;28;20423;-76
2022/02/03 20:30:32;;;;;;;9.23;5.13;;;7.20;99.90;;;;;;5013011;28;20407;-76
2022/02/03 20:32:58;;;;;;;5.17;4.53;;;7.20;99.90;;;;;;5012610;28;20407;-76
2022/02/03 20:35:24;;;;;;;6.50;4.43;;;7.20;99.90;;;;;;5012668;28;20427;-76
2022/02/03 20:37:49;;;;;;;5.77;3.93;;;7.20;99.90;;;;;;5012777;28;20634;-75
2022/02/03 20:40:15;;;;;;;9.00;4.43;;;7.20;99.90;;;;;;5016123;28;20168;-76
2022/02/03 20:42:41;;;;;;;5.90;5.10;;;7.20;99.90;;;;;;5018768;28;20172;-77
2022/02/03 20:45:06;;;;;;;7.63;4.00;;;7.20;99.90;;;;;;5012372;28;20203;-77
2022/02/03 20:47:32;;;;;;;10.33;6.33;;;7.20;99.90;;;;;;5012594;28;20180;-76
2022/02/03 20:50:04;;;;;;;9.50;5.87;;;7.20;99.90;;;;;;5012057;28;20779;-76
2022/02/03 20:52:29;;;;;;;7.33;4.10;;;7.20;99.90;;;;;;5012217;28;20181;-76
2022/02/03 20:54:55;;;;;;;6.60;4.57;;;7.20;99.90;;;;;;5012116;28;20459;-76
2022/02/03 20:57:20;;;;;;;6.20;3.77;;;7.20;99.90;;;;;;5012190;28;20218;-76
2022/02/03 21:00:00;;;;;;;6.20;3.50;;;7.20;99.90;;;;;;5012649;28;20207;-75
2022/02/03 21:02:40;;;;;;;9.27;5.50;;;7.20;99.90;;;;;;5040864;28;20164;-76
2022/02/03 21:05:10;;;;;;;8.70;4.93;;;7.20;99.90;;;;;;5011072;28;20457;-76
2022/02/03 21:07:36;;;;;;;7.83;5.83;;;7.20;99.90;;;;;;5012862;28;20415;-75
2022/02/03 21:10:06;;;;;;;8.97;5.53;;;7.20;99.90;;;;;;5012835;28;20408;-76
2022/02/03 21:12:32;;;;;;;7.70;4.47;;;7.20;99.90;;;;;;5013449;28;20168;-76
2022/02/03 21:14:58;;;;;;;9.20;6.43;;;7.20;99.90;;;;;;5010886;28;20455;-77
2022/02/03 21:17:28;;;;;;;5.00;3.90;;;7.20;99.90;;;;;;5014221;28;20410;-76
2022/02/03 21:19:53;;;;;;;4.73;3.60;;;7.20;99.90;;;;;;5015469;28;20496;-76
2022/02/03 21:22:20;;;;;;;5.57;4.00;;;7.20;99.90;;;;;;5014360;28;20674;-76
2022/02/03 21:24:46;;;;;;;7.47;4.43;;;7.20;99.90;;;;;;5014234;28;20181;-76
2022/02/03 21:27:17;;;;;;;7.13;4.60;;;7.20;99.90;;;;;;5013965;28;20472;-77
2022/02/03 21:29:43;;;;;;;8.70;5.10;;;7.20;99.90;;;;;;5016440;28;20184;-75
2022/02/03 21:32:10;;;;;;;4.80;4.27;;;7.30;99.90;;;;;;5015822;28;20437;-76
2022/02/03 21:34:36;;;;;;;8.10;4.57;;;7.30;99.90;;;;;;5045407;28;21116;-77
2022/02/03 21:37:02;;;;;;;7.70;4.97;;;7.20;99.90;;;;;;5013212;28;20438;-76
2022/02/03 21:39:28;;;;;;;6.60;3.80;;;7.20;99.90;;;;;;5014561;28;20189;-76
2022/02/03 21:41:54;;;;;;;4.40;3.60;;;7.20;99.90;;;;;;4999599;28;20582;-77
2022/02/03 21:44:22;;;;;;;8.00;4.80;;;7.20;99.90;;;;;;4996226;28;20181;-76
2022/02/03 21:46:48;;;;;;;4.57;3.00;;;7.20;99.90;;;;;;4996133;28;20189;-76
2022/02/03 21:49:14;;;;;;;7.43;4.00;;;7.20;99.90;;;;;;4998597;28;20841;-76
2022/02/03 21:51:42;;;;;;;5.63;4.17;;;7.20;99.90;;;;;;5000183;28;20188;-76
2022/02/03 21:54:09;;;;;;;3.60;2.60;;;7.00;99.90;;;;;;5000821;28;20481;-75
2022/02/03 21:56:35;;;;;;;3.70;3.20;;;6.90;99.90;;;;;;4999315;28;20428;-75
2022/02/03 21:59:07;;;;;;;4.90;3.53;;;6.80;99.90;;;;;;4997729;28;20415;-74
2022/02/03 22:01:40;;;;;;;3.53;2.73;;;6.60;99.90;;;;;;4999415;28;20408;-74
2022/02/03 22:04:07;;;;;;;3.40;2.90;;;6.60;99.90;;;;;;4999099;28;20837;-74
2022/02/03 22:06:32;;;;;;;5.00;2.87;;;6.60;99.90;;;;;;4995879;28;20552;-75
2022/02/03 22:08:58;;;;;;;3.43;2.87;;;6.60;99.90;;;;;;4995257;28;20459;-75
2022/02/03 22:11:24;;;;;;;4.93;2.83;;;6.50;99.90;;;;;;4995624;28;20667;-74
2022/02/03 22:13:49;;;;;;;5.27;2.40;;;6.50;99.90;;;;;;4995515;28;20683;-74
2022/02/03 22:16:20;;;;;;;3.40;2.40;;;6.60;99.90;;;;;;4996564;28;20961;-75
2022/02/03 22:18:46;;;;;;;7.57;4.20;;;6.70;99.90;;;;;;4995697;28;20538;-74
2022/02/03 22:21:37;;;;;;;6.20;4.47;;;6.70;99.90;;;;;;4995319;28;20412;-75
2022/02/03 22:24:44;;;;;;;3.80;3.47;;;6.60;99.90;;;;;;4995168;28;20424;-74
2022/02/03 22:27:14;;;;;;;9.20;3.20;;;6.60;99.90;;;;;;4993760;28;20919;-73
2022/02/03 22:46:06;;;;;;;10.70;5.60;;;6.60;99.90;;;;;;5003862;28;20220;-74
2022/02/03 22:48:32;;;;;;;4.67;4.13;;;6.50;99.90;;;;;;4999048;28;20748;-74
2022/02/03 22:50:59;;;;;;;7.17;4.20;;;6.50;99.90;;;;;;4993929;28;20415;-74